sensor_id;sensor_type;location;lat;lon;timestamp;P1;durP1;ratioP1;P2;durP2;ratioP2
33840;SDS011;20142;28.494;-16.312;2023-09-12T00:01:38;12.93;;;5.28;;
33840;SDS011;20142;28.494;-16.312;2023-09-12T00:06:39;9.77;;;5.60;;
33840;SDS011;20142;28.494;-16.312;2023-09-12T00:11:41;14.88;;;5.82;;
33840;SDS011;20142;28.494;-16.312;2023-09-12T00:16:43;10.65;;;5.63;;
33840;SDS011;20142;28.494;-16.312;2023-09-12T00:21:45;9.10;;;5.43;;
33840;SDS011;20142;28.494;-16.312;2023-09-12T00:26:47;10.10;;;5.28;;
33840;SDS011;20142;28.494;-16.312;2023-09-12T00:31:48;11.80;;;5.47;;
33840;SDS011;20142;28.494;-16.312;2023-09-12T00:36:50;13.07;;;5.93;;
33840;SDS011;20142;28.494;-16.312;2023-09-12T00:41:52;10.05;;;5.93;;
33840;SDS011;20142;28.494;-16.312;2023-09-12T00:46:53;10.90;;;5.60;;
33840;SDS011;20142;28.494;-16.312;2023-09-12T00:51:56;10.43;;;6.60;;
33840;SDS011;20142;28.494;-16.312;2023-09-12T00:56:59;9.82;;;5.82;;
33840;SDS011;20142;28.494;-16.312;2023-09-12T01:02:01;12.32;;;6.00;;
33840;SDS011;20142;28.494;-16.312;2023-09-12T01:07:03;11.65;;;5.97;;
33840;SDS011;20142;28.494;-16.312;2023-09-12T01:12:06;12.05;;;6.03;;
33840;SDS011;20142;28.494;-16.312;2023-09-12T01:17:08;8.82;;;5.72;;
33840;SDS011;20142;28.494;-16.312;2023-09-12T01:22:16;9.85;;;5.72;;
33840;SDS011;20142;28.494;-16.312;2023-09-12T01:27:45;9.82;;;5.72;;
33840;SDS011;20142;28.494;-16.312;2023-09-12T01:32:49;10.10;;;6.32;;
33840;SDS011;20142;28.494;-16.312;2023-09-12T01:37:53;8.73;;;6.10;;
33840;SDS011;20142;28.494;-16.312;2023-09-12T01:42:55;11.48;;;6.28;;
33840;SDS011;20142;28.494;-16.312;2023-09-12T01:47:58;8.73;;;5.90;;
33840;SDS011;20142;28.494;-16.312;2023-09-12T01:53:01;10.10;;;5.53;;
33840;SDS011;20142;28.494;-16.312;2023-09-12T01:58:04;11.32;;;6.30;;
33840;SDS011;20142;28.494;-16.312;2023-09-12T02:03:06;11.85;;;6.50;;
33840;SDS011;20142;28.494;-16.312;2023-09-12T02:08:08;9.02;;;6.45;;
33840;SDS011;20142;28.494;-16.312;2023-09-12T02:13:09;10.65;;;6.28;;
33840;SDS011;20142;28.494;-16.312;2023-09-12T02:18:11;9.00;;;5.97;;
33840;SDS011;20142;28.494;-16.312;2023-09-12T02:23:13;10.38;;;6.43;;
33840;SDS011;20142;28.494;-16.312;2023-09-12T02:28:14;13.98;;;6.32;;
33840;SDS011;20142;28.494;-16.312;2023-09-12T02:33:16;11.15;;;5.72;;
33840;SDS011;20142;28.494;-16.312;2023-09-12T02:38:18;9.80;;;5.90;;
33840;SDS011;20142;28.494;-16.312;2023-09-12T02:43:20;10.45;;;5.70;;
33840;SDS011;20142;28.494;-16.312;2023-09-12T02:48:22;13.57;;;5.68;;
33840;SDS011;20142;28.494;-16.312;2023-09-12T02:53:23;12.73;;;5.47;;
33840;SDS011;20142;28.494;-16.312;2023-09-12T02:58:25;9.77;;;6.18;;
33840;SDS011;20142;28.494;-16.312;2023-09-12T03:03:27;9.07;;;5.38;;
33840;SDS011;20142;28.494;-16.312;2023-09-12T03:08:28;11.10;;;5.10;;
33840;SDS011;20142;28.494;-16.312;2023-09-12T03:13:30;8.07;;;5.18;;
33840;SDS011;20142;28.494;-16.312;2023-09-12T03:18:32;9.75;;;5.15;;
33840;SDS011;20142;28.494;-16.312;2023-09-12T03:23:33;7.95;;;5.55;;
33840;SDS011;20142;28.494;-16.312;2023-09-12T03:28:35;8.93;;;5.65;;
33840;SDS011;20142;28.494;-16.312;2023-09-12T03:33:37;14.15;;;5.57;;
33840;SDS011;20142;28.494;-16.312;2023-09-12T03:38:39;10.40;;;6.03;;
33840;SDS011;20142;28.494;-16.312;2023-09-12T03:43:41;11.52;;;5.80;;
33840;SDS011;20142;28.494;-16.312;2023-09-12T03:48:42;12.50;;;5.40;;
33840;SDS011;20142;28.494;-16.312;2023-09-12T03:53:44;10.63;;;5.20;;
33840;SDS011;20142;28.494;-16.312;2023-09-12T03:58:49;9.93;;;5.10;;
33840;SDS011;20142;28.494;-16.312;2023-09-12T04:03:51;10.57;;;4.93;;
33840;SDS011;20142;28.494;-16.312;2023-09-12T04:08:52;9.82;;;5.35;;
33840;SDS011;20142;28.494;-16.312;2023-09-12T04:13:54;13.52;;;5.80;;
33840;SDS011;20142;28.494;-16.312;2023-09-12T04:18:56;10.15;;;5.38;;
33840;SDS011;20142;28.494;-16.312;2023-09-12T04:23:57;13.50;;;6.18;;
33840;SDS011;20142;28.494;-16.312;2023-09-12T04:28:59;13.45;;;5.53;;
33840;SDS011;20142;28.494;-16.312;2023-09-12T04:34:01;7.97;;;5.07;;
33840;SDS011;20142;28.494;-16.312;2023-09-12T04:39:02;10.15;;;5.75;;
33840;SDS011;20142;28.494;-16.312;2023-09-12T04:44:05;11.38;;;5.60;;
33840;SDS011;20142;28.494;-16.312;2023-09-12T04:49:07;10.85;;;5.43;;
33840;SDS011;20142;28.494;-16.312;2023-09-12T04:54:09;11.10;;;5.53;;
33840;SDS011;20142;28.494;-16.312;2023-09-12T04:59:11;11.68;;;5.60;;
33840;SDS011;20142;28.494;-16.312;2023-09-12T05:04:13;10.65;;;6.03;;
33840;SDS011;20142;28.494;-16.312;2023-09-12T05:09:14;11.20;;;5.97;;
33840;SDS011;20142;28.494;-16.312;2023-09-12T05:14:16;10.93;;;6.32;;
33840;SDS011;20142;28.494;-16.312;2023-09-12T05:19:18;10.57;;;6.82;;
33840;SDS011;20142;28.494;-16.312;2023-09-12T05:24:20;10.60;;;6.18;;
33840;SDS011;20142;28.494;-16.312;2023-09-12T05:29:22;11.43;;;5.85;;
33840;SDS011;20142;28.494;-16.312;2023-09-12T05:34:23;8.88;;;5.78;;
33840;SDS011;20142;28.494;-16.312;2023-09-12T05:39:25;10.80;;;6.25;;
33840;SDS011;20142;28.494;-16.312;2023-09-12T05:44:27;10.00;;;5.97;;
33840;SDS011;20142;28.494;-16.312;2023-09-12T05:49:28;11.07;;;5.82;;
33840;SDS011;20142;28.494;-16.312;2023-09-12T05:54:30;10.10;;;5.78;;
33840;SDS011;20142;28.494;-16.312;2023-09-12T05:59:32;10.07;;;6.07;;
33840;SDS011;20142;28.494;-16.312;2023-09-12T06:04:36;11.85;;;5.93;;
33840;SDS011;20142;28.494;-16.312;2023-09-12T06:09:38;11.77;;;6.10;;
33840;SDS011;20142;28.494;-16.312;2023-09-12T06:14:40;11.35;;;5.80;;
33840;SDS011;20142;28.494;-16.312;2023-09-12T06:19:41;9.52;;;6.10;;
33840;SDS011;20142;28.494;-16.312;2023-09-12T06:24:43;11.60;;;5.88;;
33840;SDS011;20142;28.494;-16.312;2023-09-12T06:29:46;9.73;;;6.22;;
33840;SDS011;20142;28.494;-16.312;2023-09-12T06:34:51;9.63;;;5.32;;
33840;SDS011;20142;28.494;-16.312;2023-09-12T06:39:53;10.27;;;6.03;;
33840;SDS011;20142;28.494;-16.312;2023-09-12T06:44:55;11.82;;;6.22;;
33840;SDS011;20142;28.494;-16.312;2023-09-12T06:49:57;14.65;;;6.20;;
33840;SDS011;20142;28.494;-16.312;2023-09-12T06:54:58;11.35;;;5.80;;
33840;SDS011;20142;28.494;-16.312;2023-09-12T07:00:00;11.32;;;5.32;;
33840;SDS011;20142;28.494;-16.312;2023-09-12T07:05:03;11.80;;;5.50;;
33840;SDS011;20142;28.494;-16.312;2023-09-12T07:10:05;11.30;;;5.32;;
33840;SDS011;20142;28.494;-16.312;2023-09-12T07:15:07;10.50;;;5.50;;
33840;SDS011;20142;28.494;-16.312;2023-09-12T07:20:10;14.38;;;5.75;;
33840;SDS011;20142;28.494;-16.312;2023-09-12T07:25:15;14.50;;;6.05;;
33840;SDS011;20142;28.494;-16.312;2023-09-12T07:30:19;11.52;;;5.32;;
33840;SDS011;20142;28.494;-16.312;2023-09-12T07:35:20;12.45;;;5.78;;
33840;SDS011;20142;28.494;-16.312;2023-09-12T07:40:24;12.50;;;6.00;;
33840;SDS011;20142;28.494;-16.312;2023-09-12T07:45:26;10.30;;;5.60;;
33840;SDS011;20142;28.494;-16.312;2023-09-12T07:50:28;11.27;;;5.28;;
33840;SDS011;20142;28.494;-16.312;2023-09-12T07:55:30;7.65;;;4.95;;
33840;SDS011;20142;28.494;-16.312;2023-09-12T08:00:36;9.95;;;5.53;;
33840;SDS011;20142;28.494;-16.312;2023-09-12T08:05:38;14.35;;;5.20;;
33840;SDS011;20142;28.494;-16.312;2023-09-12T08:10:40;8.90;;;5.07;;
33840;SDS011;20142;28.494;-16.312;2023-09-12T08:15:41;9.15;;;4.95;;
33840;SDS011;20142;28.494;-16.312;2023-09-12T08:20:43;13.77;;;5.82;;
33840;SDS011;20142;28.494;-16.312;2023-09-12T08:25:45;9.05;;;5.35;;
33840;SDS011;20142;28.494;-16.312;2023-09-12T08:30:47;9.52;;;5.00;;
33840;SDS011;20142;28.494;-16.312;2023-09-12T08:35:49;7.15;;;4.68;;
33840;SDS011;20142;28.494;-16.312;2023-09-12T08:40:51;8.27;;;4.03;;
33840;SDS011;20142;28.494;-16.312;2023-09-12T08:45:53;8.93;;;4.15;;
33840;SDS011;20142;28.494;-16.312;2023-09-12T08:50:55;11.40;;;4.60;;
33840;SDS011;20142;28.494;-16.312;2023-09-12T08:55:57;8.20;;;4.55;;
33840;SDS011;20142;28.494;-16.312;2023-09-12T09:01:00;8.70;;;4.18;;
33840;SDS011;20142;28.494;-16.312;2023-09-12T09:06:04;9.82;;;4.32;;
33840;SDS011;20142;28.494;-16.312;2023-09-12T09:11:06;9.57;;;4.85;;
33840;SDS011;20142;28.494;-16.312;2023-09-12T09:16:18;6.78;;;4.03;;
33840;SDS011;20142;28.494;-16.312;2023-09-12T09:21:22;7.70;;;3.72;;
33840;SDS011;20142;28.494;-16.312;2023-09-12T09:26:40;7.60;;;3.88;;
33840;SDS011;20142;28.494;-16.312;2023-09-12T09:31:51;9.43;;;3.80;;
33840;SDS011;20142;28.494;-16.312;2023-09-12T09:36:54;5.95;;;3.72;;
33840;SDS011;20142;28.494;-16.312;2023-09-12T09:41:57;6.20;;;3.35;;
33840;SDS011;20142;28.494;-16.312;2023-09-12T09:47:00;6.75;;;3.50;;
33840;SDS011;20142;28.494;-16.312;2023-09-12T09:52:05;5.35;;;3.17;;
33840;SDS011;20142;28.494;-16.312;2023-09-12T09:57:07;8.18;;;4.03;;
33840;SDS011;20142;28.494;-16.312;2023-09-12T10:02:10;10.20;;;4.22;;
33840;SDS011;20142;28.494;-16.312;2023-09-12T10:07:19;6.40;;;3.60;;
33840;SDS011;20142;28.494;-16.312;2023-09-12T10:12:22;10.32;;;3.78;;
33840;SDS011;20142;28.494;-16.312;2023-09-12T10:17:26;5.15;;;2.92;;
33840;SDS011;20142;28.494;-16.312;2023-09-12T10:22:39;6.35;;;3.55;;
33840;SDS011;20142;28.494;-16.312;2023-09-12T10:27:53;6.13;;;3.20;;
33840;SDS011;20142;28.494;-16.312;2023-09-12T10:32:55;6.13;;;3.40;;
33840;SDS011;20142;28.494;-16.312;2023-09-12T10:37:59;5.10;;;3.72;;
33840;SDS011;20142;28.494;-16.312;2023-09-12T10:43:04;5.25;;;3.50;;
33840;SDS011;20142;28.494;-16.312;2023-09-12T10:48:09;13.15;;;4.65;;
33840;SDS011;20142;28.494;-16.312;2023-09-12T10:53:12;4.75;;;3.20;;
33840;SDS011;20142;28.494;-16.312;2023-09-12T10:58:15;7.78;;;3.42;;
33840;SDS011;20142;28.494;-16.312;2023-09-12T11:08:28;7.25;;;3.50;;
33840;SDS011;20142;28.494;-16.312;2023-09-12T11:13:33;3.40;;;2.67;;
33840;SDS011;20142;28.494;-16.312;2023-09-12T11:24:23;4.18;;;3.00;;
33840;SDS011;20142;28.494;-16.312;2023-09-12T11:29:35;5.85;;;2.70;;
33840;SDS011;20142;28.494;-16.312;2023-09-12T11:34:43;6.28;;;3.13;;
33840;SDS011;20142;28.494;-16.312;2023-09-12T11:39:47;4.70;;;2.60;;
33840;SDS011;20142;28.494;-16.312;2023-09-12T11:44:51;4.63;;;2.63;;
33840;SDS011;20142;28.494;-16.312;2023-09-12T11:49:53;3.58;;;2.70;;
33840;SDS011;20142;28.494;-16.312;2023-09-12T11:54:56;4.60;;;2.35;;
33840;SDS011;20142;28.494;-16.312;2023-09-12T11:59:57;4.65;;;2.60;;
33840;SDS011;20142;28.494;-16.312;2023-09-12T12:05:09;5.30;;;2.45;;
33840;SDS011;20142;28.494;-16.312;2023-09-12T12:10:10;4.07;;;2.45;;
33840;SDS011;20142;28.494;-16.312;2023-09-12T12:15:13;4.88;;;2.33;;
33840;SDS011;20142;28.494;-16.312;2023-09-12T12:20:15;2.80;;;2.00;;
33840;SDS011;20142;28.494;-16.312;2023-09-12T12:25:17;3.45;;;2.10;;
33840;SDS011;20142;28.494;-16.312;2023-09-12T12:30:18;3.55;;;2.10;;
33840;SDS011;20142;28.494;-16.312;2023-09-12T12:35:21;4.63;;;1.95;;
33840;SDS011;20142;28.494;-16.312;2023-09-12T12:40:24;3.80;;;2.03;;
33840;SDS011;20142;28.494;-16.312;2023-09-12T12:45:26;3.92;;;2.47;;
33840;SDS011;20142;28.494;-16.312;2023-09-12T12:50:28;3.20;;;1.90;;
33840;SDS011;20142;28.494;-16.312;2023-09-12T12:55:29;2.83;;;2.13;;
33840;SDS011;20142;28.494;-16.312;2023-09-12T13:00:35;3.22;;;2.22;;
33840;SDS011;20142;28.494;-16.312;2023-09-12T13:05:37;4.45;;;2.13;;
33840;SDS011;20142;28.494;-16.312;2023-09-12T13:10:41;5.22;;;2.45;;
33840;SDS011;20142;28.494;-16.312;2023-09-12T13:15:43;2.88;;;2.35;;
33840;SDS011;20142;28.494;-16.312;2023-09-12T13:20:45;3.65;;;2.13;;
33840;SDS011;20142;28.494;-16.312;2023-09-12T13:25:47;5.43;;;2.40;;
33840;SDS011;20142;28.494;-16.312;2023-09-12T13:30:49;5.25;;;2.35;;
33840;SDS011;20142;28.494;-16.312;2023-09-12T13:35:50;4.53;;;2.55;;
33840;SDS011;20142;28.494;-16.312;2023-09-12T13:40:53;6.32;;;2.33;;
33840;SDS011;20142;28.494;-16.312;2023-09-12T13:45:54;5.75;;;2.35;;
33840;SDS011;20142;28.494;-16.312;2023-09-12T13:50:56;3.38;;;2.10;;
33840;SDS011;20142;28.494;-16.312;2023-09-12T13:55:58;7.25;;;2.20;;
33840;SDS011;20142;28.494;-16.312;2023-09-12T14:01:01;4.38;;;2.42;;
33840;SDS011;20142;28.494;-16.312;2023-09-12T14:06:04;3.58;;;2.10;;
33840;SDS011;20142;28.494;-16.312;2023-09-12T14:11:05;4.35;;;2.38;;
33840;SDS011;20142;28.494;-16.312;2023-09-12T14:16:07;5.28;;;2.53;;
33840;SDS011;20142;28.494;-16.312;2023-09-12T14:21:09;4.43;;;2.45;;
33840;SDS011;20142;28.494;-16.312;2023-09-12T14:26:10;5.45;;;2.33;;
33840;SDS011;20142;28.494;-16.312;2023-09-12T14:31:12;4.10;;;2.22;;
33840;SDS011;20142;28.494;-16.312;2023-09-12T14:36:15;2.60;;;2.08;;
33840;SDS011;20142;28.494;-16.312;2023-09-12T14:41:16;4.22;;;2.50;;
33840;SDS011;20142;28.494;-16.312;2023-09-12T14:46:18;4.57;;;2.22;;
33840;SDS011;20142;28.494;-16.312;2023-09-12T14:51:20;3.63;;;2.05;;
33840;SDS011;20142;28.494;-16.312;2023-09-12T14:56:21;2.80;;;2.28;;
33840;SDS011;20142;28.494;-16.312;2023-09-12T15:01:24;3.35;;;2.28;;
33840;SDS011;20142;28.494;-16.312;2023-09-12T15:06:26;3.00;;;2.00;;
33840;SDS011;20142;28.494;-16.312;2023-09-12T15:11:28;3.60;;;2.13;;
33840;SDS011;20142;28.494;-16.312;2023-09-12T15:16:29;2.75;;;2.03;;
33840;SDS011;20142;28.494;-16.312;2023-09-12T15:21:34;4.50;;;2.10;;
33840;SDS011;20142;28.494;-16.312;2023-09-12T15:26:37;2.95;;;2.20;;
33840;SDS011;20142;28.494;-16.312;2023-09-12T15:31:39;2.63;;;2.22;;
33840;SDS011;20142;28.494;-16.312;2023-09-12T15:36:41;4.65;;;2.35;;
33840;SDS011;20142;28.494;-16.312;2023-09-12T15:41:45;4.55;;;2.20;;
33840;SDS011;20142;28.494;-16.312;2023-09-12T15:46:47;2.38;;;2.00;;
33840;SDS011;20142;28.494;-16.312;2023-09-12T15:51:49;2.80;;;2.38;;
33840;SDS011;20142;28.494;-16.312;2023-09-12T15:56:51;3.92;;;2.03;;
33840;SDS011;20142;28.494;-16.312;2023-09-12T16:01:53;4.10;;;2.17;;
33840;SDS011;20142;28.494;-16.312;2023-09-12T16:06:54;4.05;;;2.25;;
33840;SDS011;20142;28.494;-16.312;2023-09-12T16:11:56;3.97;;;1.98;;
33840;SDS011;20142;28.494;-16.312;2023-09-12T16:16:58;4.25;;;2.22;;
33840;SDS011;20142;28.494;-16.312;2023-09-12T16:21:59;3.20;;;2.05;;
33840;SDS011;20142;28.494;-16.312;2023-09-12T16:27:01;3.45;;;1.77;;
33840;SDS011;20142;28.494;-16.312;2023-09-12T16:32:03;2.65;;;2.03;;
33840;SDS011;20142;28.494;-16.312;2023-09-12T16:37:05;2.78;;;2.20;;
33840;SDS011;20142;28.494;-16.312;2023-09-12T16:42:07;3.17;;;2.00;;
33840;SDS011;20142;28.494;-16.312;2023-09-12T16:47:10;2.60;;;2.13;;
33840;SDS011;20142;28.494;-16.312;2023-09-12T16:52:12;2.45;;;2.08;;
33840;SDS011;20142;28.494;-16.312;2023-09-12T16:57:13;2.63;;;1.85;;
33840;SDS011;20142;28.494;-16.312;2023-09-12T17:02:15;3.80;;;2.05;;
33840;SDS011;20142;28.494;-16.312;2023-09-12T17:07:17;4.63;;;2.15;;
33840;SDS011;20142;28.494;-16.312;2023-09-12T17:12:19;3.35;;;1.92;;
33840;SDS011;20142;28.494;-16.312;2023-09-12T17:17:21;6.97;;;2.45;;
33840;SDS011;20142;28.494;-16.312;2023-09-12T17:22:23;3.33;;;2.15;;
33840;SDS011;20142;28.494;-16.312;2023-09-12T17:27:26;3.75;;;2.10;;
33840;SDS011;20142;28.494;-16.312;2023-09-12T17:32:29;3.25;;;1.90;;
33840;SDS011;20142;28.494;-16.312;2023-09-12T17:37:31;3.05;;;2.00;;
33840;SDS011;20142;28.494;-16.312;2023-09-12T17:42:33;6.20;;;2.08;;
33840;SDS011;20142;28.494;-16.312;2023-09-12T17:47:35;6.75;;;2.30;;
33840;SDS011;20142;28.494;-16.312;2023-09-12T17:52:37;6.25;;;2.30;;
33840;SDS011;20142;28.494;-16.312;2023-09-12T17:57:39;4.50;;;2.53;;
33840;SDS011;20142;28.494;-16.312;2023-09-12T18:02:40;6.75;;;2.92;;
33840;SDS011;20142;28.494;-16.312;2023-09-12T18:07:42;4.88;;;2.60;;
33840;SDS011;20142;28.494;-16.312;2023-09-12T18:12:44;6.43;;;2.88;;
33840;SDS011;20142;28.494;-16.312;2023-09-12T18:17:45;5.47;;;2.53;;
33840;SDS011;20142;28.494;-16.312;2023-09-12T18:22:47;7.03;;;2.75;;
33840;SDS011;20142;28.494;-16.312;2023-09-12T18:27:49;6.93;;;2.60;;
33840;SDS011;20142;28.494;-16.312;2023-09-12T18:32:50;7.28;;;2.63;;
33840;SDS011;20142;28.494;-16.312;2023-09-12T18:37:55;5.85;;;3.00;;
33840;SDS011;20142;28.494;-16.312;2023-09-12T18:42:56;7.65;;;3.10;;
33840;SDS011;20142;28.494;-16.312;2023-09-12T18:47:58;6.32;;;3.67;;
33840;SDS011;20142;28.494;-16.312;2023-09-12T18:53:00;6.55;;;3.60;;
33840;SDS011;20142;28.494;-16.312;2023-09-12T18:58:03;9.13;;;3.80;;
33840;SDS011;20142;28.494;-16.312;2023-09-12T19:03:05;8.73;;;3.60;;
33840;SDS011;20142;28.494;-16.312;2023-09-12T19:08:07;4.65;;;3.20;;
33840;SDS011;20142;28.494;-16.312;2023-09-12T19:13:08;5.82;;;3.45;;
33840;SDS011;20142;28.494;-16.312;2023-09-12T19:18:10;6.95;;;3.97;;
33840;SDS011;20142;28.494;-16.312;2023-09-12T19:23:12;7.70;;;3.50;;
33840;SDS011;20142;28.494;-16.312;2023-09-12T19:28:15;8.43;;;3.95;;
33840;SDS011;20142;28.494;-16.312;2023-09-12T19:33:16;5.97;;;3.50;;
33840;SDS011;20142;28.494;-16.312;2023-09-12T19:38:18;9.88;;;3.95;;
33840;SDS011;20142;28.494;-16.312;2023-09-12T19:43:20;6.03;;;3.50;;
33840;SDS011;20142;28.494;-16.312;2023-09-12T19:48:22;5.90;;;3.28;;
33840;SDS011;20142;28.494;-16.312;2023-09-12T19:53:24;6.88;;;3.35;;
33840;SDS011;20142;28.494;-16.312;2023-09-12T19:58:25;4.75;;;3.60;;
33840;SDS011;20142;28.494;-16.312;2023-09-12T20:03:27;5.53;;;3.72;;
33840;SDS011;20142;28.494;-16.312;2023-09-12T20:08:29;8.27;;;3.67;;
33840;SDS011;20142;28.494;-16.312;2023-09-12T20:13:31;6.00;;;3.45;;
33840;SDS011;20142;28.494;-16.312;2023-09-12T20:18:32;7.25;;;3.30;;
33840;SDS011;20142;28.494;-16.312;2023-09-12T20:23:34;7.25;;;3.42;;
33840;SDS011;20142;28.494;-16.312;2023-09-12T20:28:36;6.93;;;3.40;;
33840;SDS011;20142;28.494;-16.312;2023-09-12T20:33:38;6.85;;;3.22;;
33840;SDS011;20142;28.494;-16.312;2023-09-12T20:38:49;7.70;;;3.50;;
33840;SDS011;20142;28.494;-16.312;2023-09-12T20:43:51;5.50;;;3.53;;
33840;SDS011;20142;28.494;-16.312;2023-09-12T20:48:53;7.60;;;3.67;;
33840;SDS011;20142;28.494;-16.312;2023-09-12T20:53:55;5.07;;;3.72;;
33840;SDS011;20142;28.494;-16.312;2023-09-12T20:58:59;5.80;;;3.53;;
33840;SDS011;20142;28.494;-16.312;2023-09-12T21:04:01;6.38;;;3.65;;
33840;SDS011;20142;28.494;-16.312;2023-09-12T21:09:05;6.18;;;4.00;;
33840;SDS011;20142;28.494;-16.312;2023-09-12T21:14:07;8.60;;;4.43;;
33840;SDS011;20142;28.494;-16.312;2023-09-12T21:19:08;8.60;;;3.70;;
33840;SDS011;20142;28.494;-16.312;2023-09-12T21:24:10;10.13;;;3.92;;
33840;SDS011;20142;28.494;-16.312;2023-09-12T21:29:12;7.22;;;3.70;;
33840;SDS011;20142;28.494;-16.312;2023-09-12T21:34:13;7.00;;;4.15;;
33840;SDS011;20142;28.494;-16.312;2023-09-12T21:39:15;11.48;;;4.63;;
33840;SDS011;20142;28.494;-16.312;2023-09-12T21:44:17;8.70;;;4.05;;
33840;SDS011;20142;28.494;-16.312;2023-09-12T21:49:19;7.30;;;3.95;;
33840;SDS011;20142;28.494;-16.312;2023-09-12T21:54:20;6.82;;;4.30;;
33840;SDS011;20142;28.494;-16.312;2023-09-12T21:59:22;8.68;;;4.50;;
33840;SDS011;20142;28.494;-16.312;2023-09-12T22:04:24;5.45;;;4.22;;
33840;SDS011;20142;28.494;-16.312;2023-09-12T22:09:25;8.48;;;4.53;;
33840;SDS011;20142;28.494;-16.312;2023-09-12T22:14:27;8.88;;;4.55;;
33840;SDS011;20142;28.494;-16.312;2023-09-12T22:19:30;9.43;;;4.57;;
33840;SDS011;20142;28.494;-16.312;2023-09-12T22:24:31;6.53;;;4.63;;
33840;SDS011;20142;28.494;-16.312;2023-09-12T22:29:33;6.38;;;4.55;;
33840;SDS011;20142;28.494;-16.312;2023-09-12T22:34:35;10.23;;;4.70;;
33840;SDS011;20142;28.494;-16.312;2023-09-12T22:39:37;13.40;;;5.38;;
33840;SDS011;20142;28.494;-16.312;2023-09-12T22:44:39;10.75;;;4.82;;
33840;SDS011;20142;28.494;-16.312;2023-09-12T22:49:41;8.50;;;5.18;;
33840;SDS011;20142;28.494;-16.312;2023-09-12T22:54:44;9.68;;;5.30;;
33840;SDS011;20142;28.494;-16.312;2023-09-12T22:59:46;9.02;;;5.15;;
33840;SDS011;20142;28.494;-16.312;2023-09-12T23:04:48;7.72;;;4.75;;
33840;SDS011;20142;28.494;-16.312;2023-09-12T23:09:50;9.68;;;5.47;;
33840;SDS011;20142;28.494;-16.312;2023-09-12T23:14:52;10.73;;;5.18;;
